Ellwood, Georgia
Current Conditions -  °F | °C
As of 7:53 PM on Monday 22 Dec 2014 (Local Time) from KAGS Reporting Station
Overcast Overcast  
Wind Chill: 43°   Ceiling: 500
Heat Index: 46°   Visibility: 7mi
Dew Point: 44°   Wind: 6mph
Humidity: 93%   Direction: 40°NE
Pressure: 29.99"   Gusts: NA
Location:  33.3028°N, 82.1636°W
Report Text: KAGS 230053Z 04005KT 7SM OVC005 08/07 A2999 RMK AO2 SLP156 T00780067
Loading
Personal Weather Stations






























Interactive Weather Map New forecast layout! Learn more

10-Day Weather Forecast

Advertisements
Track Severe Weather on mobile